createdAt,value
2023-05-22T00:01:49.467Z,12.23
2023-05-22T00:04:21.260Z,16.73
2023-05-22T00:06:49.595Z,13.83
2023-05-22T00:09:17.499Z,15.33
2023-05-22T00:11:45.570Z,14.67
2023-05-22T00:14:13.763Z,14.37
2023-05-22T00:16:41.734Z,15.50
2023-05-22T00:19:13.681Z,13.37
2023-05-22T00:21:43.027Z,11.40
2023-05-22T00:24:11.025Z,14.67
2023-05-22T00:26:38.842Z,13.53
2023-05-22T00:29:06.692Z,14.67
2023-05-22T00:31:34.573Z,14.10
2023-05-22T00:34:02.425Z,13.50
2023-05-22T00:36:30.511Z,12.87
2023-05-22T00:38:59.671Z,15.27
2023-05-22T00:41:27.618Z,11.27
2023-05-22T00:43:55.469Z,13.17
2023-05-22T00:46:24.599Z,18.43
2023-05-22T00:48:52.865Z,13.17
2023-05-22T00:51:22.354Z,14.80
2023-05-22T00:53:51.447Z,15.00
2023-05-22T00:56:21.937Z,12.17
2023-05-22T00:58:50.000Z,16.27
2023-05-22T01:01:18.081Z,13.83
2023-05-22T01:03:47.348Z,12.33
2023-05-22T01:06:18.401Z,18.67
2023-05-22T01:08:46.273Z,15.17
2023-05-22T01:11:17.704Z,13.03
2023-05-22T01:13:56.392Z,17.83
2023-05-22T01:16:31.225Z,17.17
2023-05-22T01:19:06.432Z,11.30
2023-05-22T01:21:40.108Z,11.80
2023-05-22T01:24:32.728Z,12.93
2023-05-22T01:27:20.008Z,17.73
2023-05-22T01:30:03.049Z,23.07
2023-05-22T01:32:33.782Z,12.70
2023-05-22T01:35:04.428Z,16.30
2023-05-22T01:37:33.321Z,12.83
2023-05-22T01:40:01.709Z,18.97
2023-05-22T01:42:29.808Z,20.17
2023-05-22T01:44:58.810Z,12.87
2023-05-22T01:47:26.702Z,13.03
2023-05-22T01:49:56.064Z,17.70
2023-05-22T01:52:34.549Z,14.70
2023-05-22T01:55:13.440Z,14.07
2023-05-22T01:57:47.960Z,15.23
2023-05-22T02:00:18.477Z,16.03
2023-05-22T02:02:50.480Z,14.87
2023-05-22T02:05:22.883Z,20.03
2023-05-22T02:07:51.826Z,14.47
2023-05-22T02:10:21.573Z,17.97
2023-05-22T02:12:49.705Z,16.83
2023-05-22T02:15:17.660Z,14.17
2023-05-22T02:17:46.204Z,16.03
2023-05-22T02:20:16.362Z,15.57
2023-05-22T02:22:46.570Z,16.27
2023-05-22T02:25:15.289Z,17.27
2023-05-22T02:27:43.808Z,15.73
2023-05-22T02:30:12.016Z,14.13
2023-05-22T02:32:39.987Z,16.60
2023-05-22T02:35:08.551Z,15.83
2023-05-22T02:37:36.762Z,15.50
2023-05-22T02:40:09.032Z,23.43
2023-05-22T02:42:37.773Z,17.73
2023-05-22T02:45:19.234Z,16.47
2023-05-22T02:47:57.524Z,21.17
2023-05-22T02:50:31.429Z,18.80
2023-05-22T02:53:02.477Z,15.50
2023-05-22T02:55:31.716Z,15.07
2023-05-22T02:57:59.598Z,16.80
2023-05-22T03:00:27.404Z,22.17
2023-05-22T03:02:55.268Z,15.07
2023-05-22T03:05:23.193Z,18.10
2023-05-22T03:07:50.974Z,13.27
2023-05-22T03:10:18.748Z,20.70
2023-05-22T03:12:48.113Z,22.30
2023-05-22T03:15:17.201Z,17.73
2023-05-22T03:17:45.081Z,16.57
2023-05-22T03:20:17.028Z,20.63
2023-05-22T03:22:45.799Z,16.53
2023-05-22T03:25:13.694Z,15.67
2023-05-22T03:27:41.638Z,18.00
2023-05-22T03:30:11.773Z,25.30
2023-05-22T03:32:39.577Z,16.10
2023-05-22T03:35:08.196Z,24.07
2023-05-22T03:37:36.013Z,16.87
2023-05-22T03:40:05.956Z,14.53
2023-05-22T03:42:33.770Z,16.77
2023-05-22T03:45:01.563Z,15.17
2023-05-22T03:47:30.714Z,15.60
2023-05-22T03:49:58.466Z,16.20
2023-05-22T03:52:26.329Z,18.87
2023-05-22T03:54:54.359Z,18.37
2023-05-22T03:57:22.106Z,17.40
2023-05-22T03:59:49.942Z,19.00
2023-05-22T04:02:17.829Z,16.20
2023-05-22T04:04:47.234Z,25.70
2023-05-22T04:07:15.268Z,16.83
2023-05-22T04:09:43.069Z,12.47
2023-05-22T04:12:11.545Z,15.47
2023-05-22T04:14:39.340Z,19.03
2023-05-22T04:17:07.054Z,14.73
2023-05-22T04:19:34.985Z,20.07
2023-05-22T04:22:04.439Z,15.70
2023-05-22T04:24:32.228Z,13.97
2023-05-22T04:27:00.446Z,15.30
2023-05-22T04:29:28.590Z,15.73
2023-05-22T04:31:56.383Z,15.87
2023-05-22T04:34:24.585Z,23.07
2023-05-22T04:36:52.767Z,13.80
2023-05-22T04:39:22.361Z,18.77
2023-05-22T04:41:50.570Z,17.17
2023-05-22T04:44:23.566Z,17.47
2023-05-22T04:46:57.403Z,17.30
2023-05-22T04:49:28.530Z,15.43
2023-05-22T04:51:57.348Z,18.93
2023-05-22T04:54:26.657Z,20.33
2023-05-22T04:56:54.447Z,29.43
2023-05-22T04:59:23.417Z,22.83
2023-05-22T05:01:52.076Z,26.33
2023-05-22T05:04:19.911Z,17.63
2023-05-22T05:06:47.923Z,22.73
2023-05-22T05:09:17.615Z,20.93
2023-05-22T05:11:47.016Z,26.67
2023-05-22T05:14:14.822Z,23.53
2023-05-22T05:16:42.674Z,23.73
2023-05-22T05:19:10.587Z,22.67
2023-05-22T05:21:38.412Z,27.57
2023-05-22T05:24:07.001Z,23.57
2023-05-22T05:26:34.798Z,22.33
2023-05-22T05:29:04.001Z,22.37
2023-05-22T05:31:32.944Z,26.87
2023-05-22T05:34:00.812Z,25.50
2023-05-22T05:36:28.999Z,28.03
2023-05-22T05:38:58.455Z,28.80
2023-05-22T05:41:27.042Z,22.63
2023-05-22T05:43:57.400Z,25.73
2023-05-22T05:46:26.889Z,24.57
2023-05-22T05:48:54.701Z,20.50
2023-05-22T05:51:22.494Z,23.87
2023-05-22T05:53:50.500Z,28.20
2023-05-22T05:56:18.369Z,21.87
2023-05-22T05:58:46.228Z,25.30
2023-05-22T06:01:14.403Z,30.63
2023-05-22T06:03:43.905Z,21.03
2023-05-22T06:06:12.017Z,24.60
2023-05-22T06:08:40.163Z,22.87
2023-05-22T06:11:07.889Z,24.90
2023-05-22T06:13:35.680Z,28.47
2023-05-22T06:16:06.390Z,22.97
2023-05-22T06:18:34.587Z,27.03
2023-05-22T06:21:03.751Z,29.07
2023-05-22T06:23:32.400Z,27.50
2023-05-22T06:26:00.171Z,26.33
2023-05-22T06:28:27.913Z,25.43
2023-05-22T06:30:57.168Z,26.30
2023-05-22T06:33:24.982Z,23.57
2023-05-22T06:35:52.845Z,27.27
2023-05-22T06:38:22.011Z,25.53
2023-05-22T06:40:50.025Z,31.10
2023-05-22T06:43:17.872Z,25.33
2023-05-22T06:45:46.052Z,21.83
2023-05-22T06:48:13.861Z,23.57
2023-05-22T06:50:41.665Z,22.10
2023-05-22T06:53:09.490Z,29.30
2023-05-22T06:55:38.642Z,27.00
2023-05-22T06:58:06.366Z,28.53
2023-05-22T07:00:34.180Z,23.13
2023-05-22T07:03:02.255Z,22.40
2023-05-22T07:05:30.295Z,32.33
2023-05-22T07:07:58.017Z,19.03
2023-05-22T07:10:27.827Z,22.33
2023-05-22T07:12:57.149Z,19.73
2023-05-22T07:15:24.930Z,21.97
2023-05-22T07:17:52.923Z,23.20
2023-05-22T07:20:20.740Z,24.87
2023-05-22T07:22:48.545Z,25.10
2023-05-22T07:25:18.577Z,29.03
2023-05-22T07:27:46.299Z,25.07
2023-05-22T07:30:15.930Z,25.57
2023-05-22T07:32:43.745Z,24.60
2023-05-22T07:35:11.895Z,21.43
2023-05-22T07:37:39.843Z,18.50
2023-05-22T07:40:09.786Z,23.67
2023-05-22T07:42:38.256Z,22.40
2023-05-22T07:45:07.200Z,18.93
2023-05-22T07:47:36.328Z,20.00
2023-05-22T07:50:05.150Z,20.77
2023-05-22T07:52:33.035Z,20.20
2023-05-22T07:55:01.104Z,17.03
2023-05-22T07:57:29.860Z,19.37
2023-05-22T07:59:59.280Z,22.13
2023-05-22T08:02:27.356Z,19.40
2023-05-22T08:04:56.694Z,19.37
2023-05-22T08:07:24.597Z,18.10
2023-05-22T08:09:52.412Z,20.90
2023-05-22T08:12:21.347Z,21.13
2023-05-22T08:14:50.352Z,19.63
2023-05-22T08:17:18.183Z,23.53
2023-05-22T08:19:46.160Z,16.97
2023-05-22T08:22:15.581Z,24.77
2023-05-22T08:24:44.902Z,21.00
2023-05-22T08:27:12.648Z,20.40
2023-05-22T08:29:40.738Z,29.30
2023-05-22T08:32:09.146Z,26.00
2023-05-22T08:34:36.896Z,21.77
2023-05-22T08:37:05.882Z,20.70
2023-05-22T08:39:35.064Z,21.07
2023-05-22T08:42:04.067Z,23.40
2023-05-22T08:44:32.218Z,21.50
2023-05-22T08:47:05.171Z,21.00
2023-05-22T08:49:33.078Z,19.03
2023-05-22T08:52:06.732Z,20.70
2023-05-22T08:54:37.863Z,22.90
2023-05-22T08:57:06.503Z,22.53
2023-05-22T08:59:40.083Z,22.10
2023-05-22T09:02:08.727Z,19.20
2023-05-22T09:04:36.548Z,17.67
2023-05-22T09:07:06.024Z,22.90
2023-05-22T09:09:37.927Z,19.80
2023-05-22T09:12:09.202Z,30.93
2023-05-22T09:14:40.535Z,20.50
2023-05-22T09:17:09.620Z,19.60
2023-05-22T09:19:38.090Z,20.97
2023-05-22T09:22:07.457Z,22.17
2023-05-22T09:24:42.140Z,20.80
2023-05-22T09:27:11.126Z,18.00
2023-05-22T09:29:49.594Z,22.53
2023-05-22T09:32:18.206Z,21.67
2023-05-22T09:34:46.980Z,23.87
2023-05-22T09:37:14.869Z,20.90
2023-05-22T09:39:45.277Z,21.60
2023-05-22T09:42:14.981Z,24.03
2023-05-22T09:44:44.290Z,18.83
2023-05-22T09:47:12.384Z,21.53
2023-05-22T09:49:43.108Z,26.53
2023-05-22T09:52:13.062Z,26.30
2023-05-22T09:54:51.108Z,23.17
2023-05-22T09:57:20.698Z,19.73
2023-05-22T09:59:54.559Z,19.10
2023-05-22T10:02:23.900Z,15.90
2023-05-22T10:04:52.729Z,20.90
2023-05-22T10:07:24.132Z,19.87
2023-05-22T10:10:00.272Z,17.80
2023-05-22T10:12:33.652Z,15.83
2023-05-22T10:15:03.126Z,23.33
2023-05-22T10:17:31.748Z,16.07
2023-05-22T10:19:59.699Z,20.33
2023-05-22T10:22:30.422Z,22.43
2023-05-22T10:25:00.813Z,21.77
2023-05-22T10:27:28.674Z,19.83
2023-05-22T10:30:03.821Z,20.50
2023-05-22T10:32:36.899Z,16.53
2023-05-22T10:35:18.290Z,23.13
2023-05-22T10:37:51.477Z,23.23
2023-05-22T10:40:28.934Z,21.37
2023-05-22T10:43:00.935Z,22.43
2023-05-22T10:45:29.737Z,22.60
2023-05-22T10:48:05.236Z,23.07
2023-05-22T10:50:33.466Z,16.63
2023-05-22T10:53:19.808Z,18.57
2023-05-22T10:55:53.322Z,20.53
2023-05-22T10:58:28.516Z,18.90
2023-05-22T11:01:13.364Z,18.77
2023-05-22T11:03:58.594Z,17.67
2023-05-22T11:06:37.822Z,23.67
2023-05-22T11:09:19.821Z,18.50
2023-05-22T11:12:09.951Z,20.37
2023-05-22T11:14:37.913Z,21.10
2023-05-22T11:17:06.844Z,22.43
2023-05-22T11:19:35.025Z,16.73
2023-05-22T11:22:04.492Z,14.63
2023-05-22T11:24:34.780Z,19.90
2023-05-22T11:27:06.877Z,17.80
2023-05-22T11:29:34.874Z,17.03
2023-05-22T11:32:03.154Z,19.07
2023-05-22T11:34:31.038Z,16.27
2023-05-22T11:36:59.961Z,18.60
2023-05-22T11:39:27.866Z,19.50
2023-05-22T11:41:55.706Z,19.87
2023-05-22T11:44:24.978Z,17.63
2023-05-22T11:46:54.295Z,14.17
2023-05-22T11:49:24.065Z,19.47
2023-05-22T11:51:53.344Z,16.10
2023-05-22T11:54:22.234Z,19.23
2023-05-22T11:56:50.045Z,20.87
2023-05-22T11:59:17.952Z,22.97
2023-05-22T12:01:50.837Z,27.67
2023-05-22T12:04:18.885Z,21.30
2023-05-22T12:06:47.127Z,23.07
2023-05-22T12:09:15.094Z,17.90
2023-05-22T12:11:47.239Z,18.43
2023-05-22T12:14:15.383Z,12.97
2023-05-22T12:16:44.451Z,20.07
2023-05-22T12:19:14.055Z,18.50
2023-05-22T12:21:42.166Z,20.43
2023-05-22T12:24:09.996Z,16.77
2023-05-22T12:26:38.056Z,18.03
2023-05-22T12:29:05.990Z,21.03
2023-05-22T12:31:38.675Z,14.30
2023-05-22T12:34:08.623Z,15.57
2023-05-22T12:36:40.010Z,17.93
2023-05-22T12:39:09.440Z,16.57
2023-05-22T12:41:37.508Z,20.40
2023-05-22T12:44:05.469Z,19.73
2023-05-22T12:46:33.551Z,19.10
2023-05-22T12:49:02.214Z,17.77
2023-05-22T12:51:31.253Z,22.47
2023-05-22T12:54:01.471Z,19.33
2023-05-22T12:56:30.744Z,19.60
2023-05-22T12:58:58.888Z,24.63
2023-05-22T13:01:27.286Z,19.33
2023-05-22T13:03:55.138Z,17.07
2023-05-22T13:06:22.898Z,16.83
2023-05-22T13:08:50.645Z,18.27
2023-05-22T13:11:20.164Z,16.83
2023-05-22T13:13:48.014Z,14.95
2023-05-22T13:16:15.903Z,15.33
2023-05-22T13:18:43.713Z,18.38
2023-05-22T13:21:12.648Z,14.65
2023-05-22T13:23:40.531Z,11.93
2023-05-22T13:26:08.620Z,15.20
2023-05-22T13:28:37.770Z,14.65
2023-05-22T13:31:05.592Z,14.18
2023-05-22T13:33:33.357Z,10.35
2023-05-22T13:36:01.125Z,13.57
2023-05-22T13:38:28.933Z,9.77
2023-05-22T13:40:56.758Z,9.30
2023-05-22T13:43:24.550Z,10.95
2023-05-22T13:45:53.705Z,10.57
2023-05-22T13:48:21.748Z,10.93
2023-05-22T13:50:49.466Z,10.85
2023-05-22T13:53:17.425Z,9.20
2023-05-22T13:55:45.563Z,9.55
2023-05-22T13:58:13.431Z,12.05
2023-05-22T14:00:41.253Z,9.07
2023-05-22T14:03:11.587Z,11.30
2023-05-22T14:05:39.631Z,9.25
2023-05-22T14:08:07.558Z,13.68
2023-05-22T14:10:35.974Z,12.77
2023-05-22T14:13:04.516Z,8.63
2023-05-22T14:15:32.276Z,9.60
2023-05-22T14:18:00.151Z,6.75
2023-05-22T14:20:29.375Z,12.43
2023-05-22T14:22:58.430Z,9.38
2023-05-22T14:25:26.923Z,7.50
2023-05-22T14:27:57.619Z,8.18
2023-05-22T14:30:25.348Z,7.22
2023-05-22T14:32:53.138Z,7.60
2023-05-22T14:35:20.898Z,10.10
2023-05-22T14:37:50.188Z,17.02
2023-05-22T14:40:18.120Z,7.07
2023-05-22T14:42:46.185Z,7.70
2023-05-22T14:45:13.985Z,10.15
2023-05-22T14:47:43.186Z,9.40
2023-05-22T14:50:18.955Z,9.13
2023-05-22T14:52:47.986Z,9.68
2023-05-22T14:55:17.815Z,8.07
2023-05-22T14:57:45.727Z,12.13
2023-05-22T15:00:14.500Z,8.57
2023-05-22T15:02:42.273Z,8.80
2023-05-22T15:05:10.808Z,11.45
2023-05-22T15:07:44.442Z,6.93
2023-05-22T15:10:13.997Z,6.60
2023-05-22T15:12:43.089Z,7.95
2023-05-22T15:15:11.707Z,11.57
2023-05-22T15:17:42.412Z,9.40
2023-05-22T15:20:11.724Z,7.78
2023-05-22T15:22:39.540Z,7.45
2023-05-22T15:25:09.207Z,5.30
2023-05-22T15:27:37.125Z,8.20
2023-05-22T15:30:09.584Z,7.15
2023-05-22T15:32:38.210Z,7.85
2023-05-22T15:35:07.181Z,6.55
2023-05-22T15:37:36.387Z,7.07
2023-05-22T15:40:05.820Z,4.90
2023-05-22T15:42:33.761Z,6.00
2023-05-22T15:45:02.026Z,4.43
2023-05-22T15:47:31.549Z,10.70
2023-05-22T15:50:00.048Z,5.53
2023-05-22T15:52:27.870Z,5.07
2023-05-22T15:54:57.072Z,5.80
2023-05-22T15:57:25.053Z,9.43
2023-05-22T15:59:52.837Z,7.40
2023-05-22T16:02:20.666Z,5.88
2023-05-22T16:04:50.179Z,6.80
2023-05-22T16:07:20.052Z,6.28
2023-05-22T16:09:50.266Z,5.05
2023-05-22T16:12:18.244Z,8.95
2023-05-22T16:14:47.193Z,6.00
2023-05-22T16:17:15.012Z,4.55
2023-05-22T16:19:43.384Z,8.38
2023-05-22T16:22:16.467Z,5.15
2023-05-22T16:24:44.301Z,6.25
2023-05-22T16:27:12.036Z,4.75
2023-05-22T16:29:39.899Z,6.53
2023-05-22T16:32:08.372Z,8.63
2023-05-22T16:34:36.574Z,7.38
2023-05-22T16:37:04.431Z,7.20
2023-05-22T16:39:33.682Z,6.30
2023-05-22T16:42:01.822Z,8.07
2023-05-22T16:44:29.875Z,5.45
2023-05-22T16:46:57.742Z,13.30
2023-05-22T16:49:25.535Z,6.60
2023-05-22T16:51:54.506Z,9.10
2023-05-22T16:54:22.582Z,6.32
2023-05-22T16:56:51.797Z,7.32
2023-05-22T16:59:19.658Z,7.82
2023-05-22T17:01:47.795Z,10.20
2023-05-22T17:04:15.972Z,9.90
2023-05-22T17:06:43.961Z,9.40
2023-05-22T17:09:11.815Z,9.38
2023-05-22T17:11:39.547Z,11.38
2023-05-22T17:14:08.982Z,9.85
2023-05-22T17:16:37.894Z,10.00
2023-05-22T17:19:06.514Z,8.40
2023-05-22T17:21:34.393Z,11.82
2023-05-22T17:24:02.321Z,11.95
2023-05-22T17:26:30.105Z,6.93
2023-05-22T17:28:57.953Z,9.32
2023-05-22T17:31:27.354Z,7.68
2023-05-22T17:33:55.345Z,7.93
2023-05-22T17:36:23.148Z,9.43
2023-05-22T17:38:51.081Z,9.27
2023-05-22T17:41:19.011Z,8.55
2023-05-22T17:43:46.865Z,8.65
2023-05-22T17:46:14.733Z,8.30
2023-05-22T17:48:45.000Z,13.77
2023-05-22T17:51:12.761Z,9.07
2023-05-22T17:53:40.479Z,12.30
2023-05-22T17:56:08.443Z,12.38
2023-05-22T17:58:36.277Z,11.40
2023-05-22T18:01:04.196Z,12.27
2023-05-22T18:03:32.205Z,11.45
2023-05-22T18:06:01.436Z,10.07
2023-05-22T18:08:29.584Z,11.02
2023-05-22T18:10:58.908Z,12.98
2023-05-22T18:13:26.674Z,13.90
2023-05-22T18:15:55.948Z,12.23
2023-05-22T18:18:23.794Z,13.07
2023-05-22T18:20:51.804Z,12.73
2023-05-22T18:23:20.918Z,15.32
2023-05-22T18:25:49.052Z,12.48
2023-05-22T18:28:16.869Z,15.65
2023-05-22T18:30:45.741Z,10.90
2023-05-22T18:33:13.693Z,10.55
2023-05-22T18:35:41.549Z,9.85
2023-05-22T18:38:09.361Z,15.85
2023-05-22T18:40:38.917Z,13.80
2023-05-22T18:43:07.089Z,12.25
2023-05-22T18:45:36.005Z,11.90
2023-05-22T18:48:03.817Z,17.90
2023-05-22T18:50:31.732Z,14.70
2023-05-22T18:52:59.537Z,15.05
2023-05-22T18:55:27.380Z,13.95
2023-05-22T18:57:56.615Z,17.15
2023-05-22T19:00:24.425Z,13.98
2023-05-22T19:02:52.198Z,15.13
2023-05-22T19:05:20.104Z,12.10
2023-05-22T19:07:48.069Z,13.90
2023-05-22T19:10:16.015Z,17.33
2023-05-22T19:12:43.757Z,13.60
2023-05-22T19:15:13.275Z,13.93
2023-05-22T19:17:41.085Z,13.05
2023-05-22T19:20:09.735Z,14.75
2023-05-22T19:22:37.595Z,18.85
2023-05-22T19:25:06.141Z,18.85
2023-05-22T19:27:34.242Z,15.68
2023-05-22T19:30:03.328Z,13.20
2023-05-22T19:32:32.520Z,14.57
2023-05-22T19:35:00.372Z,15.20
2023-05-22T19:37:28.219Z,14.97
2023-05-22T19:39:56.013Z,14.40
2023-05-22T19:42:23.771Z,17.87
2023-05-22T19:44:51.598Z,12.03
2023-05-22T19:47:19.572Z,18.23
2023-05-22T19:49:48.799Z,18.90
2023-05-22T19:52:16.534Z,17.37
2023-05-22T19:54:44.359Z,14.57
2023-05-22T19:57:14.582Z,16.63
2023-05-22T19:59:43.021Z,15.73
2023-05-22T20:02:11.076Z,16.00
2023-05-22T20:04:42.936Z,15.03
2023-05-22T20:07:12.265Z,17.00
2023-05-22T20:09:40.211Z,20.53
2023-05-22T20:12:09.511Z,19.03
2023-05-22T20:14:37.714Z,19.63
2023-05-22T20:17:05.772Z,15.87
2023-05-22T20:19:34.591Z,18.67
2023-05-22T20:22:05.019Z,18.30
2023-05-22T20:24:35.605Z,22.10
2023-05-22T20:27:05.185Z,18.47
2023-05-22T20:29:33.176Z,17.33
2023-05-22T20:32:01.131Z,16.30
2023-05-22T20:34:29.226Z,23.27
2023-05-22T20:36:58.435Z,21.53
2023-05-22T20:39:26.357Z,17.97
2023-05-22T20:41:55.506Z,16.60
2023-05-22T20:44:24.712Z,17.17
2023-05-22T20:46:53.302Z,18.27
2023-05-22T20:49:21.425Z,16.50
2023-05-22T20:51:50.094Z,17.20
2023-05-22T20:54:18.241Z,16.47
2023-05-22T20:56:46.060Z,20.90
2023-05-22T20:59:15.283Z,15.93
2023-05-22T21:01:43.197Z,14.13
2023-05-22T21:04:11.225Z,14.93
2023-05-22T21:06:40.166Z,11.77
2023-05-22T21:09:08.095Z,10.67
2023-05-22T21:11:35.824Z,9.27
2023-05-22T21:14:03.678Z,11.80
2023-05-22T21:16:32.832Z,17.57
2023-05-22T21:19:00.632Z,12.73
2023-05-22T21:21:28.408Z,12.40
2023-05-22T21:23:56.151Z,11.30
2023-05-22T21:26:24.052Z,13.77
2023-05-22T21:28:51.919Z,13.93
2023-05-22T21:31:19.938Z,12.60
2023-05-22T21:33:49.114Z,16.77
2023-05-22T21:36:17.352Z,10.30
2023-05-22T21:38:45.386Z,12.13
2023-05-22T21:41:13.331Z,9.23
2023-05-22T21:43:41.202Z,16.43
2023-05-22T21:46:09.109Z,10.23
2023-05-22T21:48:36.927Z,12.93
2023-05-22T21:51:06.794Z,11.10
2023-05-22T21:53:34.755Z,12.07
2023-05-22T21:56:02.528Z,12.23
2023-05-22T21:58:30.388Z,11.90
2023-05-22T22:00:58.332Z,7.97
2023-05-22T22:03:26.622Z,13.63
2023-05-22T22:05:54.556Z,9.37
2023-05-22T22:08:23.749Z,9.70
2023-05-22T22:10:51.722Z,8.23
2023-05-22T22:13:19.652Z,5.80
2023-05-22T22:15:48.483Z,9.53
2023-05-22T22:18:16.760Z,10.13
2023-05-22T22:20:45.558Z,9.70
2023-05-22T22:23:13.853Z,8.33
2023-05-22T22:25:43.130Z,9.47
2023-05-22T22:28:11.414Z,8.57
2023-05-22T22:30:39.302Z,8.50
2023-05-22T22:33:07.670Z,8.57
2023-05-22T22:35:35.470Z,7.73
2023-05-22T22:38:03.283Z,10.20
2023-05-22T22:40:30.989Z,12.97
2023-05-22T22:43:00.134Z,12.13
2023-05-22T22:45:27.910Z,12.90
2023-05-22T22:47:56.486Z,12.47
2023-05-22T22:50:25.452Z,14.47
2023-05-22T22:52:53.260Z,13.03
2023-05-22T22:55:21.435Z,12.60
2023-05-22T22:57:50.087Z,12.77
2023-05-22T23:00:20.247Z,15.07
2023-05-22T23:02:48.083Z,11.60
2023-05-22T23:05:20.016Z,15.17
2023-05-22T23:07:48.641Z,17.37
2023-05-22T23:10:16.770Z,15.27
2023-05-22T23:12:44.749Z,22.07
2023-05-22T23:15:14.030Z,17.20
2023-05-22T23:17:43.290Z,18.53
2023-05-22T23:20:11.921Z,20.03
2023-05-22T23:22:39.733Z,23.00
2023-05-22T23:25:08.420Z,18.17
2023-05-22T23:27:36.480Z,18.03
2023-05-22T23:30:04.656Z,18.87
2023-05-22T23:32:32.389Z,20.87
2023-05-22T23:35:01.558Z,18.23
2023-05-22T23:37:29.412Z,18.83
2023-05-22T23:39:57.176Z,13.67
2023-05-22T23:42:25.756Z,17.47
2023-05-22T23:44:53.525Z,16.03
2023-05-22T23:47:21.471Z,17.57
2023-05-22T23:49:49.281Z,13.10
2023-05-22T23:52:18.485Z,17.87
2023-05-22T23:54:46.286Z,14.73
2023-05-22T23:57:14.137Z,16.70
2023-05-22T23:59:43.608Z,11.83
